Polaris — JD2797 — position and weather

sailwx.info

Track history (hours):
 
Tides and Currents Weather Stations Pressure Air Temp Water Temp Dewpoint Dewpoint Depression Visibility Wind Speed Wind Dir Waves Ship Positions

Polaris

Last reported at 2015-Aug-30 04:26 UTC. Time now 2015-Aug-30 18:07 UTC.
Position N 35°19' E 139°38'.

Length 30 m; draft 2.6 m.

Type: Pilot. MMSI: 431000764.

Date/timePositionNaut miles runAvg speedWind from/ knotsBaromVisibWave heightAir tempDewpointWater temp
2015-Aug-30 04:26N 35°19' E 139°38'1011.5
2015-Aug-30 03:33N 35°27' E 139°46'1110.7
2015-Aug-30 02:33N 35°34' E 139°56'0 0.4
2015-Aug-30 01:33N 35°34' E 139°56'1 0.9
2015-Aug-30 00:33N 35°34' E 139°56'2 2.1
2015-Aug-29 23:33N 35°32' E 139°55'1313.2
2015-Aug-29 22:33N 35°22' E 139°45'6 0.5
2015-Aug-29 09:29N 35°19' E 139°38'8 8.3
2015-Aug-29 08:31N 35°14' E 139°46'1313.2
2015-Aug-29 07:33N 35°26' E 139°42'1 0.6
2015-Aug-29 06:33N 35°26' E 139°42'0 0.1
2015-Aug-29 05:33N 35°26' E 139°42'1 1.4
2015-Aug-29 04:33N 35°25' E 139°42'7 7.0
2015-Aug-29 03:34N 35°19' E 139°38'0 0.0
2015-Aug-29 02:33N 35°19' E 139°38'0 0.0
2015-Aug-29 01:33N 35°19' E 139°38'0 0.0
2015-Aug-29 00:33N 35°19' E 139°38'0 0.0
2015-Aug-28 23:33N 35°19' E 139°38'0 0.0
2015-Aug-28 22:33N 35°19' E 139°38'0 0.0
2015-Aug-28 21:33N 35°19' E 139°38'6 5.6
2015-Aug-28 20:33N 35°17' E 139°45'6 6.2
2015-Aug-28 19:33N 35°11' E 139°47'1010.2
2015-Aug-28 18:33N 35°19' E 139°38'3 0.1
2015-Aug-27 11:33N 35°18' E 139°43'1 0.8
2015-Aug-27 10:33N 35°19' E 139°43'5 4.6
2015-Aug-27 09:33N 35°23' E 139°43'4 0.2
2015-Aug-26 08:33N 35°19' E 139°41'3 2.7
2015-Aug-26 07:33N 35°19' E 139°44'9 9.3
2015-Aug-26 06:33N 35°10' E 139°47'1110.5
2015-Aug-26 05:33N 35°19' E 139°40'  
2015-Aug-23 08:06N 35°19' E 139°38'611.3
2015-Aug-23 07:34N 35°16' E 139°45'5 5.4
2015-Aug-23 06:33N 35°21' E 139°42'7 6.6
2015-Aug-23 05:33N 35°23' E 139°50'2 2.1
2015-Aug-23 04:33N 35°22' E 139°52'1111.0
2015-Aug-23 03:33N 35°27' E 139°40'4 3.6
2015-Aug-23 02:33N 35°24' E 139°42'6 6.2
2015-Aug-23 01:33N 35°19' E 139°38'0 0.0
2015-Aug-23 00:33N 35°19' E 139°38'0 0.0
2015-Aug-22 23:31N 35°19' E 139°38'0 0.0
2015-Aug-22 22:30N 35°19' E 139°38'0 0.0
2015-Aug-22 21:33N 35°19' E 139°38'0 0.0
2015-Aug-22 20:33N 35°19' E 139°38'0 0.3
2015-Aug-22 19:33N 35°18' E 139°39'6 5.9
2015-Aug-22 18:33N 35°16' E 139°45'1111.1
2015-Aug-22 17:33N 35°27' E 139°43'9 9.2
2015-Aug-22 16:33N 35°19' E 139°39'1 0.5
2015-Aug-22 15:28N 35°19' E 139°38'0 0.0
2015-Aug-22 14:33N 35°19' E 139°38'0 0.0
2015-Aug-22 13:28N 35°19' E 139°38'0 0.0
2015-Aug-22 12:33N 35°19' E 139°38'0 0.0
2015-Aug-22 11:32N 35°19' E 139°38'0 0.0
2015-Aug-22 10:32N 35°19' E 139°38'0 0.0
2015-Aug-22 09:33N 35°19' E 139°38'8 7.9
2015-Aug-22 08:34N 35°24' E 139°45'9 8.6
2015-Aug-22 07:33N 35°16' E 139°47'1 1.0
2015-Aug-22 06:32N 35°16' E 139°45'2 0.1
2015-Aug-21 02:33N 35°17' E 139°44'2 2.1
2015-Aug-21 01:33N 35°19' E 139°43'6 6.2
2015-Aug-21 00:33N 35°25' E 139°45'8 8.3
2015-Aug-20 23:33N 35°19' E 139°38'3 0.2
2015-Aug-20 08:33N 35°21' E 139°41'3 2.7
2015-Aug-20 07:32N 35°20' E 139°44'1010.2
2015-Aug-20 06:33N 35°10' E 139°47'  
Track history (hours):
 
Tides and Currents Weather Stations Pressure Air Temp Water Temp Dewpoint Dewpoint Depression Visibility Wind Speed Wind Dir Waves Ship Positions

Polaris

Last reported at 2015-Aug-30 04:26 UTC. Time now 2015-Aug-30 18:07 UTC.
Position N 35°19' E 139°38'.

Length 30 m; draft 2.6 m.

Type: Pilot. MMSI: 431000764.

Date/timePositionNaut miles runAvg speedWind from/ knotsBaromVisibWave heightAir tempDewpointWater temp
2015-Aug-30 04:26N 35°19' E 139°38'1011.5
2015-Aug-30 03:33N 35°27' E 139°46'1110.7
2015-Aug-30 02:33N 35°34' E 139°56'0 0.4
2015-Aug-30 01:33N 35°34' E 139°56'1 0.9
2015-Aug-30 00:33N 35°34' E 139°56'2 2.1
2015-Aug-29 23:33N 35°32' E 139°55'1313.2
2015-Aug-29 22:33N 35°22' E 139°45'6 0.5
2015-Aug-29 09:29N 35°19' E 139°38'8 8.3
2015-Aug-29 08:31N 35°14' E 139°46'1313.2
2015-Aug-29 07:33N 35°26' E 139°42'1 0.6
2015-Aug-29 06:33N 35°26' E 139°42'0 0.1
2015-Aug-29 05:33N 35°26' E 139°42'1 1.4
2015-Aug-29 04:33N 35°25' E 139°42'7 7.0
2015-Aug-29 03:34N 35°19' E 139°38'0 0.0
2015-Aug-29 02:33N 35°19' E 139°38'0 0.0
2015-Aug-29 01:33N 35°19' E 139°38'0 0.0
2015-Aug-29 00:33N 35°19' E 139°38'0 0.0
2015-Aug-28 23:33N 35°19' E 139°38'0 0.0
2015-Aug-28 22:33N 35°19' E 139°38'0 0.0
2015-Aug-28 21:33N 35°19' E 139°38'6 5.6
2015-Aug-28 20:33N 35°17' E 139°45'6 6.2
2015-Aug-28 19:33N 35°11' E 139°47'1010.2
2015-Aug-28 18:33N 35°19' E 139°38'3 0.1
2015-Aug-27 11:33N 35°18' E 139°43'1 0.8
2015-Aug-27 10:33N 35°19' E 139°43'5 4.6
2015-Aug-27 09:33N 35°23' E 139°43'4 0.2
2015-Aug-26 08:33N 35°19' E 139°41'3 2.7
2015-Aug-26 07:33N 35°19' E 139°44'9 9.3
2015-Aug-26 06:33N 35°10' E 139°47'1110.5
2015-Aug-26 05:33N 35°19' E 139°40'  
2015-Aug-23 08:06N 35°19' E 139°38'611.3
2015-Aug-23 07:34N 35°16' E 139°45'5 5.4
2015-Aug-23 06:33N 35°21' E 139°42'7 6.6
2015-Aug-23 05:33N 35°23' E 139°50'2 2.1
2015-Aug-23 04:33N 35°22' E 139°52'1111.0
2015-Aug-23 03:33N 35°27' E 139°40'4 3.6
2015-Aug-23 02:33N 35°24' E 139°42'6 6.2
2015-Aug-23 01:33N 35°19' E 139°38'0 0.0
2015-Aug-23 00:33N 35°19' E 139°38'0 0.0
2015-Aug-22 23:31N 35°19' E 139°38'0 0.0
2015-Aug-22 22:30N 35°19' E 139°38'0 0.0
2015-Aug-22 21:33N 35°19' E 139°38'0 0.0
2015-Aug-22 20:33N 35°19' E 139°38'0 0.3
2015-Aug-22 19:33N 35°18' E 139°39'6 5.9
2015-Aug-22 18:33N 35°16' E 139°45'1111.1
2015-Aug-22 17:33N 35°27' E 139°43'9 9.2
2015-Aug-22 16:33N 35°19' E 139°39'1 0.5
2015-Aug-22 15:28N 35°19' E 139°38'0 0.0
2015-Aug-22 14:33N 35°19' E 139°38'0 0.0
2015-Aug-22 13:28N 35°19' E 139°38'0 0.0
2015-Aug-22 12:33N 35°19' E 139°38'0 0.0
2015-Aug-22 11:32N 35°19' E 139°38'0 0.0
2015-Aug-22 10:32N 35°19' E 139°38'0 0.0
2015-Aug-22 09:33N 35°19' E 139°38'8 7.9
2015-Aug-22 08:34N 35°24' E 139°45'9 8.6
2015-Aug-22 07:33N 35°16' E 139°47'1 1.0
2015-Aug-22 06:32N 35°16' E 139°45'2 0.1
2015-Aug-21 02:33N 35°17' E 139°44'2 2.1
2015-Aug-21 01:33N 35°19' E 139°43'6 6.2
2015-Aug-21 00:33N 35°25' E 139°45'8 8.3
2015-Aug-20 23:33N 35°19' E 139°38'3 0.2
2015-Aug-20 08:33N 35°21' E 139°41'3 2.7
2015-Aug-20 07:32N 35°20' E 139°44'1010.2
2015-Aug-20 06:33N 35°10' E 139°47'  

Dump ship's entire track history